YZD weather

Downsview Airport
Toronto, Ontario, Canada

Public forecast

Using degrees Celsius for public forecast. Weather courtesy of forecast.io.

METAR (pilot weather report)

Closest report is Billy Bishop Toronto City Centre Airport, 7.5 nm (14.0 km) SSE. Retrieved 2019/04/25 09:00 UTC (21 minutes ago):

CYTZ 250900Z AUTO 07002KT 9SM CLR 06/02 A2992 RMK SLP137

TAF (pilot weather forecast)

Closest forecast is Billy Bishop Toronto City Centre Airport, 7.5 nm (14.0 km) SSE. Retrieved 2019/04/25 08:45 UTC (36 minutes ago):

TAF CYTZ 250738Z 2508/2608 07007KT P6SM SKC FM251500 09008KT P6SM BKN120 FM260200 04006KT P6SM BKN050 OVC140 FM260600 04007KT P6SM -SHRA OVC040 RMK FCST BASED ON AUTO OBS. NXT FCST BY 251400Z